createdAt,value
2017-12-20T00:00:02.347Z,96.92
2017-12-20T00:01:02.198Z,97.68
2017-12-20T00:02:02.111Z,97.49
2017-12-20T00:03:02.102Z,97.58
2017-12-20T00:04:01.947Z,97.11
2017-12-20T00:05:01.864Z,97.68
2017-12-20T00:06:01.824Z,97.68
2017-12-20T00:07:01.735Z,97.87
2017-12-20T00:08:01.597Z,97.68
2017-12-20T00:09:01.586Z,97.87
2017-12-20T00:10:01.428Z,97.49
2017-12-20T00:11:01.342Z,97.20
2017-12-20T00:12:01.266Z,97.58
2017-12-20T00:13:01.176Z,97.68
2017-12-20T00:14:01.100Z,97.87
2017-12-20T00:15:01.011Z,97.87
2017-12-20T00:16:00.912Z,97.39
2017-12-20T00:17:00.866Z,97.77
2017-12-20T00:18:00.742Z,97.58
2017-12-20T00:19:00.718Z,98.06
2017-12-20T00:20:00.614Z,97.49
2017-12-20T00:21:00.488Z,97.58
2017-12-20T00:22:00.401Z,97.20
2017-12-20T00:23:00.316Z,97.49
2017-12-20T00:24:00.239Z,97.68
2017-12-20T00:25:00.146Z,97.68
2017-12-20T00:26:00.068Z,97.49
2017-12-20T00:27:00.050Z,97.58
2017-12-20T00:27:59.975Z,97.49
2017-12-20T00:28:59.813Z,96.92
2017-12-20T00:29:59.768Z,97.20
2017-12-20T00:30:59.653Z,97.11
2017-12-20T00:31:59.545Z,96.92
2017-12-20T00:32:59.497Z,97.11
2017-12-20T00:33:59.505Z,97.20
2017-12-20T00:34:59.291Z,96.92
2017-12-20T00:35:59.201Z,97.02
2017-12-20T00:36:59.202Z,97.02
2017-12-20T00:37:59.124Z,96.92
2017-12-20T00:38:59.557Z,97.20
2017-12-20T00:39:58.895Z,97.20
2017-12-20T00:40:58.836Z,97.11
2017-12-20T00:41:58.726Z,97.30
2017-12-20T00:42:58.746Z,97.02
2017-12-20T00:43:58.654Z,97.11
2017-12-20T00:44:59.990Z,97.20
2017-12-20T00:45:58.360Z,97.20
2017-12-20T00:46:58.278Z,97.11
2017-12-20T00:47:59.097Z,97.73
2017-12-20T00:48:58.175Z,96.92
2017-12-20T00:49:58.074Z,97.58
2017-12-20T00:50:57.967Z,97.11
2017-12-20T00:51:57.870Z,96.73
2017-12-20T00:52:57.774Z,97.11
2017-12-20T00:53:57.689Z,97.02
2017-12-20T00:54:57.585Z,96.40
2017-12-20T00:55:57.505Z,97.30
2017-12-20T00:56:57.718Z,97.16
2017-12-20T00:57:57.417Z,97.30
2017-12-20T00:58:57.425Z,97.39
2017-12-20T00:59:57.226Z,97.02
2017-12-20T01:00:57.109Z,97.02
2017-12-20T01:01:57.138Z,96.92
2017-12-20T01:02:56.920Z,97.58
2017-12-20T01:03:57.048Z,97.20
2017-12-20T01:04:56.750Z,97.58
2017-12-20T01:05:56.860Z,97.39
2017-12-20T01:06:56.558Z,97.11
2017-12-20T01:07:56.872Z,96.92
2017-12-20T01:08:56.571Z,97.11
2017-12-20T01:09:56.785Z,97.11
2017-12-20T01:10:56.281Z,97.11
2017-12-20T01:11:56.164Z,97.25
2017-12-20T01:12:58.238Z,97.58
2017-12-20T01:13:55.972Z,97.06
2017-12-20T01:14:55.878Z,96.97
2017-12-20T01:15:56.006Z,96.54
2017-12-20T01:16:55.704Z,96.88
2017-12-20T01:17:55.711Z,96.97
2017-12-20T01:18:55.552Z,97.63
2017-12-20T01:19:55.622Z,96.92
2017-12-20T01:20:55.631Z,97.35
2017-12-20T01:21:55.434Z,97.54
2017-12-20T01:22:55.268Z,97.25
2017-12-20T01:23:55.121Z,96.97
2017-12-20T01:24:55.024Z,96.40
2017-12-20T01:25:54.989Z,95.93
2017-12-20T01:26:54.851Z,96.12
2017-12-20T01:27:54.859Z,96.78
2017-12-20T01:28:54.868Z,96.31
2017-12-20T01:29:54.630Z,96.59
2017-12-20T01:30:54.526Z,96.78
2017-12-20T01:31:54.665Z,96.78
2017-12-20T01:32:54.381Z,96.78
2017-12-20T01:33:54.493Z,96.59
2017-12-20T01:34:54.404Z,96.59
2017-12-20T01:35:54.092Z,96.40
2017-12-20T01:36:53.999Z,96.78
2017-12-20T01:37:54.108Z,96.69
2017-12-20T01:38:53.910Z,96.50
2017-12-20T01:39:54.532Z,96.02
2017-12-20T01:40:53.723Z,96.40
2017-12-20T01:41:53.623Z,96.21
2017-12-20T01:42:53.529Z,96.40
2017-12-20T01:43:53.434Z,96.40
2017-12-20T01:44:53.419Z,96.31
2017-12-20T01:45:53.333Z,96.21
2017-12-20T01:46:53.146Z,96.12
2017-12-20T01:47:53.255Z,96.12
2017-12-20T01:48:53.467Z,96.40
2017-12-20T01:49:53.065Z,96.12
2017-12-20T01:50:53.696Z,96.40
2017-12-20T01:51:52.976Z,96.12
2017-12-20T01:52:52.655Z,96.69
2017-12-20T01:53:52.785Z,96.97
2017-12-20T01:54:52.485Z,96.50
2017-12-20T01:55:52.902Z,96.21
2017-12-20T01:56:52.294Z,96.88
2017-12-20T01:57:52.280Z,96.40
2017-12-20T01:58:52.262Z,95.93
2017-12-20T01:59:52.087Z,96.97
2017-12-20T02:00:52.005Z,96.88
2017-12-20T02:01:51.870Z,96.31
2017-12-20T02:02:51.822Z,96.21
2017-12-20T02:03:51.706Z,95.93
2017-12-20T02:04:51.632Z,96.59
2017-12-20T02:05:51.639Z,96.40
2017-12-20T02:06:51.545Z,96.12
2017-12-20T02:07:51.857Z,96.31
2017-12-20T02:08:51.841Z,96.12
2017-12-20T02:09:51.651Z,96.59
2017-12-20T02:10:51.265Z,96.59
2017-12-20T02:11:51.202Z,96.12
2017-12-20T02:12:51.381Z,96.97
2017-12-20T02:13:50.875Z,97.06
2017-12-20T02:14:50.780Z,97.35
2017-12-20T02:15:50.683Z,96.97
2017-12-20T02:16:50.690Z,97.16
2017-12-20T02:17:50.697Z,96.97
2017-12-20T02:18:50.602Z,97.63
2017-12-20T02:19:50.334Z,97.06
2017-12-20T02:20:50.359Z,96.21
2017-12-20T02:21:50.239Z,96.31
2017-12-20T02:22:50.119Z,96.40
2017-12-20T02:23:50.019Z,97.06
2017-12-20T02:24:50.259Z,97.06
2017-12-20T02:25:49.830Z,96.88
2017-12-20T02:26:49.837Z,97.16
2017-12-20T02:27:49.743Z,97.25
2017-12-20T02:28:49.649Z,97.54
2017-12-20T02:29:49.921Z,97.16
2017-12-20T02:30:50.377Z,97.35
2017-12-20T02:31:49.772Z,97.11
2017-12-20T02:32:49.367Z,97.20
2017-12-20T02:33:49.171Z,97.49
2017-12-20T02:34:49.076Z,97.87
2017-12-20T02:35:49.515Z,97.30
2017-12-20T02:36:48.986Z,97.58
2017-12-20T02:37:48.993Z,97.87
2017-12-20T02:38:48.801Z,97.96
2017-12-20T02:39:48.700Z,97.87
2017-12-20T02:40:49.014Z,98.06
2017-12-20T02:41:48.611Z,97.44
2017-12-20T02:42:48.516Z,97.68
2017-12-20T02:43:48.317Z,98.01
2017-12-20T02:44:48.226Z,97.77
2017-12-20T02:45:48.541Z,97.68
2017-12-20T02:46:48.235Z,97.49
2017-12-20T02:47:48.038Z,98.15
2017-12-20T02:48:47.942Z,97.96
2017-12-20T02:49:48.051Z,98.63
2017-12-20T02:50:47.752Z,98.53
2017-12-20T02:51:47.632Z,98.53
2017-12-20T02:52:47.867Z,97.96
2017-12-20T02:53:47.467Z,98.34
2017-12-20T02:54:47.372Z,98.06
2017-12-20T02:55:47.379Z,98.15
2017-12-20T02:56:47.283Z,98.91
2017-12-20T02:57:47.186Z,98.82
2017-12-20T02:58:47.092Z,98.91
2017-12-20T02:59:47.630Z,98.44
2017-12-20T03:00:46.899Z,98.72
2017-12-20T03:01:47.520Z,99.01
2017-12-20T03:02:46.810Z,99.19
2017-12-20T03:03:46.610Z,99.38
2017-12-20T03:04:46.617Z,99.10
2017-12-20T03:05:47.035Z,99.48
2017-12-20T03:06:46.863Z,99.95
2017-12-20T03:07:47.355Z,99.38
2017-12-20T03:08:46.236Z,99.29
2017-12-20T03:09:46.141Z,99.48
2017-12-20T03:10:46.123Z,99.10
2017-12-20T03:11:45.951Z,98.91
2017-12-20T03:12:46.051Z,99.85
2017-12-20T03:13:45.861Z,99.95
2017-12-20T03:14:45.664Z,99.95
2017-12-20T03:15:45.568Z,99.76
2017-12-20T03:16:45.519Z,99.48
2017-12-20T03:17:45.479Z,99.95
2017-12-20T03:18:45.485Z,99.48
2017-12-20T03:19:45.496Z,99.85
2017-12-20T03:20:45.192Z,99.66
2017-12-20T03:21:45.506Z,99.57
2017-12-20T03:22:45.033Z,99.85
2017-12-20T03:23:44.909Z,99.19
2017-12-20T03:24:44.811Z,99.10
2017-12-20T03:25:44.714Z,99.29
2017-12-20T03:26:44.722Z,99.57
2017-12-20T03:27:44.597Z,99.66
2017-12-20T03:28:44.533Z,99.48
2017-12-20T03:29:44.387Z,99.19
2017-12-20T03:30:44.340Z,99.48
2017-12-20T03:31:44.194Z,99.29
2017-12-20T03:32:44.150Z,99.19
2017-12-20T03:33:44.053Z,99.10
2017-12-20T03:34:43.959Z,99.29
2017-12-20T03:35:43.944Z,99.29
2017-12-20T03:36:43.762Z,99.19
2017-12-20T03:37:43.774Z,99.01
2017-12-20T03:38:43.781Z,99.66
2017-12-20T03:39:43.597Z,99.99
2017-12-20T03:40:43.487Z,99.48
2017-12-20T03:41:43.391Z,99.48
2017-12-20T03:42:44.114Z,98.82
2017-12-20T03:43:43.201Z,99.38
2017-12-20T03:44:43.207Z,99.29
2017-12-20T03:45:44.444Z,99.19
2017-12-20T03:46:43.018Z,99.29
2017-12-20T03:47:42.822Z,99.29
2017-12-20T03:48:43.764Z,99.10
2017-12-20T03:49:42.832Z,99.10
2017-12-20T03:50:42.634Z,98.63
2017-12-20T03:51:42.539Z,98.91
2017-12-20T03:52:42.445Z,98.82
2017-12-20T03:53:42.348Z,99.19
2017-12-20T03:54:42.253Z,98.82
2017-12-20T03:55:43.185Z,99.01
2017-12-20T03:56:42.061Z,98.49
2017-12-20T03:57:42.067Z,98.82
2017-12-20T03:58:42.076Z,98.39
2017-12-20T03:59:44.613Z,98.06
2017-12-20T04:00:41.782Z,98.30
2017-12-20T04:01:42.454Z,98.20
2017-12-20T04:02:41.541Z,98.30
2017-12-20T04:03:44.045Z,98.39
2017-12-20T04:04:41.369Z,98.49
2017-12-20T04:05:41.304Z,98.68
2017-12-20T04:06:41.203Z,98.11
2017-12-20T04:07:41.114Z,98.20
2017-12-20T04:08:41.027Z,98.30
2017-12-20T04:09:40.942Z,98.01
2017-12-20T04:10:40.896Z,98.20
2017-12-20T04:11:40.801Z,98.20
2017-12-20T04:12:40.687Z,98.20
2017-12-20T04:13:40.608Z,98.11
2017-12-20T04:14:40.546Z,98.11
2017-12-20T04:15:40.450Z,98.11
2017-12-20T04:16:40.346Z,98.49
2017-12-20T04:17:40.262Z,98.11
2017-12-20T04:18:40.176Z,98.01
2017-12-20T04:19:40.089Z,98.49
2017-12-20T04:20:40.004Z,98.49
2017-12-20T04:21:39.920Z,98.49
2017-12-20T04:22:39.837Z,98.58
2017-12-20T04:23:39.759Z,97.92
2017-12-20T04:24:39.663Z,98.20
2017-12-20T04:25:39.578Z,98.11
2017-12-20T04:26:39.494Z,97.92
2017-12-20T04:27:39.408Z,97.73
2017-12-20T04:28:39.323Z,97.44
2017-12-20T04:29:39.238Z,97.63
2017-12-20T04:30:39.224Z,97.54
2017-12-20T04:31:39.067Z,98.39
2017-12-20T04:32:38.989Z,98.20
2017-12-20T04:33:38.983Z,98.20
2017-12-20T04:34:38.813Z,98.39
2017-12-20T04:35:38.726Z,98.30
2017-12-20T04:36:38.855Z,97.54
2017-12-20T04:37:40.532Z,97.63
2017-12-20T04:38:38.513Z,97.73
2017-12-20T04:39:38.436Z,98.11
2017-12-20T04:40:38.300Z,98.11
2017-12-20T04:41:38.217Z,98.20
2017-12-20T04:42:38.138Z,97.54
2017-12-20T04:43:38.046Z,97.44
2017-12-20T04:44:37.988Z,97.63
2017-12-20T04:45:37.877Z,97.92
2017-12-20T04:46:37.792Z,97.73
2017-12-20T04:47:37.706Z,98.11
2017-12-20T04:48:37.621Z,98.20
2017-12-20T04:49:37.536Z,98.01
2017-12-20T04:50:37.518Z,98.20
2017-12-20T04:51:37.526Z,98.39
2017-12-20T04:52:37.291Z,98.11
2017-12-20T04:53:37.226Z,98.39
2017-12-20T04:54:37.115Z,97.54
2017-12-20T04:55:37.040Z,97.44
2017-12-20T04:56:36.938Z,98.11
2017-12-20T04:57:37.158Z,98.68
2017-12-20T04:58:38.666Z,98.96
2017-12-20T04:59:38.541Z,98.96
2017-12-20T05:00:36.602Z,98.30
2017-12-20T05:01:36.533Z,98.49
2017-12-20T05:02:36.432Z,98.49
2017-12-20T05:03:36.481Z,98.86
2017-12-20T05:04:36.262Z,98.30
2017-12-20T05:05:36.175Z,97.54
2017-12-20T05:06:36.090Z,97.16
2017-12-20T05:07:36.033Z,97.63
2017-12-20T05:08:35.920Z,98.11
2017-12-20T05:09:35.836Z,98.30
2017-12-20T05:10:35.779Z,97.92
2017-12-20T05:11:35.680Z,97.73
2017-12-20T05:12:35.728Z,97.73
2017-12-20T05:13:35.495Z,97.82
2017-12-20T05:14:35.430Z,97.82
2017-12-20T05:15:36.461Z,97.92
2017-12-20T05:16:35.304Z,97.92
2017-12-20T05:17:35.210Z,97.73
2017-12-20T05:18:35.091Z,97.54
2017-12-20T05:19:35.226Z,97.16
2017-12-20T05:20:34.904Z,97.16
2017-12-20T05:21:34.866Z,97.44
2017-12-20T05:22:34.802Z,97.25
2017-12-20T05:23:34.645Z,97.16
2017-12-20T05:24:34.585Z,97.44
2017-12-20T05:25:34.474Z,97.35
2017-12-20T05:26:34.404Z,97.35
2017-12-20T05:27:34.304Z,97.25
2017-12-20T05:28:34.300Z,97.44
2017-12-20T05:29:34.163Z,97.73
2017-12-20T05:30:34.050Z,97.82
2017-12-20T05:31:33.972Z,97.92
2017-12-20T05:32:33.880Z,97.73
2017-12-20T05:33:33.819Z,97.92
2017-12-20T05:34:33.724Z,97.54
2017-12-20T05:35:33.630Z,97.35
2017-12-20T05:36:33.570Z,97.35
2017-12-20T05:37:33.456Z,97.73
2017-12-20T05:38:33.405Z,97.35
2017-12-20T05:39:33.285Z,97.16
2017-12-20T05:40:33.200Z,97.73
2017-12-20T05:41:33.118Z,97.73
2017-12-20T05:42:33.063Z,97.54
2017-12-20T05:43:32.968Z,97.73
2017-12-20T05:44:32.873Z,97.35
2017-12-20T05:45:32.777Z,97.63
2017-12-20T05:46:32.783Z,97.73
2017-12-20T05:47:32.649Z,97.16
2017-12-20T05:48:32.592Z,97.73
2017-12-20T05:49:34.057Z,97.73
2017-12-20T05:50:32.352Z,97.63
2017-12-20T05:51:32.268Z,97.63
2017-12-20T05:52:32.183Z,97.92
2017-12-20T05:53:32.100Z,97.92
2017-12-20T05:54:32.020Z,97.63
2017-12-20T05:55:31.966Z,97.54
2017-12-20T05:56:31.890Z,97.73
2017-12-20T05:57:31.794Z,97.82
2017-12-20T05:58:31.902Z,97.92
2017-12-20T05:59:31.650Z,97.73
2017-12-20T06:00:31.505Z,97.92
2017-12-20T06:01:31.503Z,97.54
2017-12-20T06:02:31.419Z,97.25
2017-12-20T06:03:31.263Z,97.54
2017-12-20T06:04:31.173Z,97.25
2017-12-20T06:05:31.481Z,97.73
2017-12-20T06:06:31.038Z,97.73
2017-12-20T06:07:31.085Z,97.25
2017-12-20T06:08:30.824Z,97.35
2017-12-20T06:09:30.794Z,97.16
2017-12-20T06:10:30.654Z,97.35
2017-12-20T06:11:30.568Z,97.54
2017-12-20T06:12:30.489Z,97.16
2017-12-20T06:13:30.720Z,97.44
2017-12-20T06:14:30.314Z,97.25
2017-12-20T06:15:30.362Z,97.25
2017-12-20T06:16:30.145Z,96.88
2017-12-20T06:17:30.060Z,96.78
2017-12-20T06:18:29.990Z,96.50
2017-12-20T06:19:30.031Z,96.40
2017-12-20T06:20:29.844Z,96.40
2017-12-20T06:21:29.723Z,96.97
2017-12-20T06:22:30.375Z,96.97
2017-12-20T06:23:29.556Z,96.88
2017-12-20T06:24:29.467Z,97.44
2017-12-20T06:25:29.425Z,96.97
2017-12-20T06:26:29.374Z,96.40
2017-12-20T06:27:29.226Z,96.40
2017-12-20T06:28:29.138Z,96.31
2017-12-20T06:29:29.189Z,96.88
2017-12-20T06:30:29.140Z,96.02
2017-12-20T06:31:28.997Z,96.31
2017-12-20T06:32:28.800Z,96.50
2017-12-20T06:33:28.702Z,96.97
2017-12-20T06:34:28.718Z,96.88
2017-12-20T06:35:28.533Z,96.59
2017-12-20T06:36:28.497Z,96.59
2017-12-20T06:37:28.366Z,96.40
2017-12-20T06:38:28.286Z,97.16
2017-12-20T06:39:28.233Z,97.44
2017-12-20T06:40:28.241Z,97.25
2017-12-20T06:41:28.043Z,97.16
2017-12-20T06:42:27.946Z,97.16
2017-12-20T06:43:27.908Z,97.16
2017-12-20T06:44:27.784Z,97.25
2017-12-20T06:45:27.719Z,97.35
2017-12-20T06:46:27.724Z,97.35
2017-12-20T06:47:27.526Z,97.16
2017-12-20T06:48:28.158Z,97.25
2017-12-20T06:49:27.482Z,97.40
2017-12-20T06:50:27.287Z,97.54
2017-12-20T06:51:27.190Z,97.40
2017-12-20T06:52:27.094Z,96.88
2017-12-20T06:53:27.101Z,97.30
2017-12-20T06:54:27.005Z,97.25
2017-12-20T06:55:27.013Z,97.35
2017-12-20T06:56:26.849Z,96.97
2017-12-20T06:57:26.703Z,96.21
2017-12-20T06:58:27.094Z,96.97
2017-12-20T06:59:26.503Z,97.25
2017-12-20T07:00:26.432Z,97.35
2017-12-20T07:01:26.340Z,97.63
2017-12-20T07:02:26.297Z,96.97
2017-12-20T07:03:26.252Z,97.06
2017-12-20T07:04:26.152Z,96.69
2017-12-20T07:05:26.009Z,96.88
2017-12-20T07:06:25.903Z,97.54
2017-12-20T07:07:25.969Z,97.06
2017-12-20T07:08:25.745Z,97.25
2017-12-20T07:09:26.056Z,97.35
2017-12-20T07:10:25.581Z,96.97
2017-12-20T07:11:25.534Z,97.16
2017-12-20T07:12:25.443Z,97.25
2017-12-20T07:13:25.470Z,96.97
2017-12-20T07:14:25.947Z,97.35
2017-12-20T07:15:25.194Z,97.92
2017-12-20T07:16:25.213Z,97.54
2017-12-20T07:17:25.017Z,98.20
2017-12-20T07:18:24.918Z,97.82
2017-12-20T07:19:24.825Z,98.11
2017-12-20T07:20:24.855Z,98.30
2017-12-20T07:21:24.631Z,98.20
2017-12-20T07:22:24.640Z,98.68
2017-12-20T07:23:24.495Z,98.39
2017-12-20T07:24:24.399Z,98.86
2017-12-20T07:25:24.316Z,98.20
2017-12-20T07:26:24.257Z,98.86
2017-12-20T07:27:24.153Z,98.49
2017-12-20T07:28:24.064Z,98.39
2017-12-20T07:29:23.970Z,98.30
2017-12-20T07:30:23.874Z,98.86
2017-12-20T07:31:23.779Z,99.05
2017-12-20T07:32:24.676Z,99.24
2017-12-20T07:33:23.639Z,99.81
2017-12-20T07:34:23.545Z,99.52
2017-12-20T07:35:23.450Z,99.71
2017-12-20T07:36:23.917Z,98.96
2017-12-20T07:37:23.303Z,99.15
2017-12-20T07:38:23.303Z,99.33
2017-12-20T07:39:23.113Z,98.96
2017-12-20T07:40:23.021Z,99.99
2017-12-20T07:41:22.978Z,99.71
2017-12-20T07:42:22.884Z,99.33
2017-12-20T07:43:22.793Z,99.33
2017-12-20T07:44:22.741Z,99.33
2017-12-20T07:45:22.646Z,99.52
2017-12-20T07:46:22.654Z,99.81
2017-12-20T07:47:22.455Z,99.52
2017-12-20T07:48:22.361Z,99.90
2017-12-20T07:49:22.264Z,99.33
2017-12-20T07:50:22.171Z,99.43
2017-12-20T07:51:22.076Z,99.15
2017-12-20T07:52:22.098Z,99.15
2017-12-20T07:53:21.950Z,99.24
2017-12-20T07:54:21.837Z,99.24
2017-12-20T07:55:21.793Z,98.58
2017-12-20T07:56:21.700Z,99.15
2017-12-20T07:57:22.013Z,99.15
2017-12-20T07:58:21.560Z,99.15
2017-12-20T07:59:21.469Z,99.15
2017-12-20T08:00:21.325Z,99.33
2017-12-20T08:01:21.276Z,99.71
2017-12-20T08:02:21.168Z,99.71
2017-12-20T08:03:21.234Z,99.24
2017-12-20T08:04:21.088Z,99.33
2017-12-20T08:05:21.057Z,99.05
2017-12-20T08:06:20.847Z,99.05
2017-12-20T08:07:20.750Z,99.05
2017-12-20T08:08:21.166Z,99.05
2017-12-20T08:09:20.559Z,99.05
2017-12-20T08:10:20.620Z,99.05
2017-12-20T08:11:20.469Z,98.68
2017-12-20T08:12:20.579Z,98.58
2017-12-20T08:13:20.282Z,99.05
2017-12-20T08:14:20.801Z,98.68
2017-12-20T08:15:20.075Z,98.49
2017-12-20T08:16:20.095Z,98.20
2017-12-20T08:17:19.897Z,98.49
2017-12-20T08:18:19.804Z,98.49
2017-12-20T08:19:19.707Z,98.39
2017-12-20T08:20:19.610Z,98.30
2017-12-20T08:21:19.619Z,98.58
2017-12-20T08:22:19.625Z,98.58
2017-12-20T08:23:20.672Z,98.49
2017-12-20T08:24:20.657Z,98.11
2017-12-20T08:25:19.287Z,98.11
2017-12-20T08:26:19.331Z,98.68
2017-12-20T08:27:19.047Z,98.58
2017-12-20T08:28:18.950Z,98.49
2017-12-20T08:29:19.160Z,98.20
2017-12-20T08:30:18.793Z,98.77
2017-12-20T08:31:19.747Z,98.77
2017-12-20T08:32:18.771Z,98.77
2017-12-20T08:33:18.574Z,98.30
2017-12-20T08:34:18.581Z,98.58
2017-12-20T08:35:18.588Z,98.49
2017-12-20T08:36:18.493Z,98.20
2017-12-20T08:37:18.499Z,98.68
2017-12-20T08:38:18.109Z,98.11
2017-12-20T08:39:18.411Z,98.39
2017-12-20T08:40:19.236Z,98.58
2017-12-20T08:41:18.015Z,98.49
2017-12-20T08:42:18.535Z,98.11
2017-12-20T08:43:17.825Z,98.39
2017-12-20T08:44:18.036Z,98.11
2017-12-20T08:45:17.535Z,98.68
2017-12-20T08:46:18.152Z,98.77
2017-12-20T08:47:17.342Z,98.49
2017-12-20T08:48:17.244Z,98.68
2017-12-20T08:49:17.148Z,99.05
2017-12-20T08:50:17.566Z,98.77
2017-12-20T08:51:17.163Z,99.15
2017-12-20T08:52:17.324Z,99.24
2017-12-20T08:53:17.296Z,99.33
2017-12-20T08:54:18.797Z,99.43
2017-12-20T08:55:16.985Z,99.24
2017-12-20T08:56:16.790Z,99.33
2017-12-20T08:57:17.100Z,99.15
2017-12-20T08:58:16.391Z,99.33
2017-12-20T08:59:16.296Z,99.24
2017-12-20T09:00:16.268Z,99.33
2017-12-20T09:01:17.230Z,99.24
2017-12-20T09:02:16.219Z,98.86
2017-12-20T09:03:16.118Z,98.86
2017-12-20T09:04:15.920Z,98.68
2017-12-20T09:05:15.825Z,98.77
2017-12-20T09:06:16.653Z,98.68
2017-12-20T09:07:15.730Z,98.68
2017-12-20T09:08:15.716Z,98.86
2017-12-20T09:09:15.722Z,98.77
2017-12-20T09:10:15.656Z,98.86
2017-12-20T09:11:15.457Z,98.86
2017-12-20T09:12:15.361Z,98.68
2017-12-20T09:13:15.368Z,98.77
2017-12-20T09:14:15.787Z,98.86
2017-12-20T09:15:15.387Z,98.77
2017-12-20T09:16:14.878Z,98.11
2017-12-20T09:17:14.783Z,98.68
2017-12-20T09:18:14.890Z,98.25
2017-12-20T09:19:15.102Z,98.16
2017-12-20T09:20:14.691Z,98.06
2017-12-20T09:21:15.524Z,98.06
2017-12-20T09:22:14.407Z,97.68
2017-12-20T09:23:14.310Z,97.87
2017-12-20T09:24:15.136Z,97.68
2017-12-20T09:25:14.136Z,97.78
2017-12-20T09:26:14.025Z,97.49
2017-12-20T09:27:14.544Z,97.21
2017-12-20T09:28:14.140Z,97.59
2017-12-20T09:29:13.780Z,97.11
2017-12-20T09:30:14.973Z,97.02
2017-12-20T09:31:13.956Z,97.30
2017-12-20T09:32:14.168Z,96.92
2017-12-20T09:33:13.565Z,97.49
2017-12-20T09:34:13.673Z,97.11
2017-12-20T09:35:14.345Z,96.45
2017-12-20T09:36:13.582Z,96.45
2017-12-20T09:37:13.080Z,96.45
2017-12-20T09:38:15.645Z,96.45
2017-12-20T09:39:13.583Z,96.26
2017-12-20T09:40:13.098Z,96.83
2017-12-20T09:41:15.150Z,96.17
2017-12-20T09:44:30.674Z,96.92
2017-12-20T09:45:30.542Z,96.17
2017-12-20T09:47:23.833Z,96.36
2017-12-20T09:48:23.703Z,96.17
2017-12-20T09:49:23.616Z,96.17
2017-12-20T09:50:23.542Z,96.26
2017-12-20T09:51:23.466Z,96.26
2017-12-20T09:52:23.359Z,96.26
2017-12-20T09:53:23.297Z,95.88
2017-12-20T09:54:23.222Z,96.07
2017-12-20T09:55:23.103Z,96.07
2017-12-20T09:56:23.023Z,95.88
2017-12-20T09:57:22.953Z,95.88
2017-12-20T09:58:22.852Z,95.41
2017-12-20T09:59:22.775Z,95.50
2017-12-20T10:00:22.682Z,95.31
2017-12-20T10:01:22.600Z,95.50
2017-12-20T10:02:22.517Z,95.79
2017-12-20T10:03:22.430Z,95.60
2017-12-20T10:04:22.345Z,95.31
2017-12-20T10:05:22.264Z,95.69
2017-12-20T10:06:22.176Z,95.41
2017-12-20T10:07:22.107Z,95.69
2017-12-20T10:08:22.016Z,96.26
2017-12-20T10:09:21.934Z,95.69
2017-12-20T10:10:21.843Z,95.74
2017-12-20T10:11:21.762Z,95.60
2017-12-20T10:12:21.674Z,95.45
2017-12-20T10:13:21.603Z,95.36
2017-12-20T10:14:21.514Z,95.17
2017-12-20T10:15:21.432Z,95.55
2017-12-20T10:16:21.343Z,95.69
2017-12-20T10:17:21.253Z,95.36
2017-12-20T10:18:21.168Z,94.84
2017-12-20T10:19:21.126Z,95.31
2017-12-20T10:20:21.015Z,95.31
2017-12-20T10:21:20.920Z,95.31
2017-12-20T10:22:20.835Z,94.74
2017-12-20T10:23:20.769Z,95.31
2017-12-20T10:24:20.665Z,95.12
2017-12-20T10:25:20.583Z,94.93
2017-12-20T10:26:20.512Z,95.12
2017-12-20T10:27:20.416Z,95.50
2017-12-20T10:28:20.328Z,95.50
2017-12-20T10:29:20.246Z,95.69
2017-12-20T10:30:20.179Z,95.41
2017-12-20T10:31:20.084Z,95.50
2017-12-20T10:32:19.997Z,95.22
2017-12-20T10:33:19.909Z,95.79
2017-12-20T10:34:19.828Z,96.36
2017-12-20T10:35:19.749Z,96.36
2017-12-20T10:36:19.656Z,95.98
2017-12-20T10:37:19.573Z,95.79
2017-12-20T10:38:19.484Z,96.26
2017-12-20T10:39:19.402Z,96.26
2017-12-20T10:40:19.328Z,95.88
2017-12-20T10:41:19.234Z,96.26
2017-12-20T10:42:19.149Z,96.36
2017-12-20T10:43:19.063Z,96.07
2017-12-20T10:44:18.984Z,95.50
2017-12-20T10:45:18.901Z,95.31
2017-12-20T10:46:18.813Z,95.69
2017-12-20T10:47:18.727Z,95.41
2017-12-20T10:48:18.645Z,95.31
2017-12-20T10:49:18.560Z,95.12
2017-12-20T10:50:18.477Z,95.74
2017-12-20T10:51:18.391Z,95.31
2017-12-20T10:52:18.306Z,95.41
2017-12-20T10:53:18.225Z,95.26
2017-12-20T10:54:18.139Z,95.31
2017-12-20T10:55:18.055Z,95.55
2017-12-20T10:56:17.972Z,95.50
2017-12-20T10:57:17.888Z,95.50
2017-12-20T10:58:17.801Z,94.98
2017-12-20T10:59:17.717Z,95.17
2017-12-20T11:00:17.641Z,95.26
2017-12-20T11:01:17.551Z,95.55
2017-12-20T11:02:17.466Z,95.55
2017-12-20T11:03:17.383Z,95.36
2017-12-20T11:04:17.304Z,95.36
2017-12-20T11:05:17.215Z,95.17
2017-12-20T11:06:17.134Z,95.36
2017-12-20T11:07:17.047Z,94.70
2017-12-20T11:08:16.963Z,94.79
2017-12-20T11:09:16.881Z,94.51
2017-12-20T11:10:16.794Z,94.51
2017-12-20T11:11:16.728Z,94.60
2017-12-20T11:12:16.628Z,94.98
2017-12-20T11:13:16.543Z,94.98
2017-12-20T11:14:16.459Z,94.79
2017-12-20T11:15:16.376Z,94.89
2017-12-20T11:16:16.296Z,94.98
2017-12-20T11:17:16.208Z,94.89
2017-12-20T11:18:16.125Z,94.98
2017-12-20T11:19:16.040Z,94.60
2017-12-20T11:20:15.957Z,94.98
2017-12-20T11:21:15.878Z,95.07
2017-12-20T11:22:15.791Z,94.79
2017-12-20T11:23:15.706Z,94.79
2017-12-20T11:24:15.622Z,94.89
2017-12-20T11:25:15.540Z,95.55
2017-12-20T11:26:15.458Z,94.89
2017-12-20T11:27:15.374Z,94.60
2017-12-20T11:28:15.291Z,94.60
2017-12-20T11:29:15.208Z,94.70
2017-12-20T11:30:15.120Z,94.51
2017-12-20T11:31:15.036Z,94.89
2017-12-20T11:32:14.957Z,94.79
2017-12-20T11:33:14.870Z,94.89
2017-12-20T11:34:14.788Z,94.79
2017-12-20T11:35:14.706Z,95.55
2017-12-20T11:36:14.618Z,95.65
2017-12-20T11:37:14.538Z,95.45
2017-12-20T11:38:14.451Z,94.89
2017-12-20T11:39:14.368Z,95.07
2017-12-20T11:40:14.284Z,95.45
2017-12-20T11:41:14.202Z,95.45
2017-12-20T11:42:14.118Z,95.07
2017-12-20T11:43:14.035Z,95.36
2017-12-20T11:44:13.949Z,94.98
2017-12-20T11:45:13.866Z,95.45
2017-12-20T11:46:13.785Z,95.36
2017-12-20T11:47:13.723Z,95.45
2017-12-20T11:48:13.616Z,94.98
2017-12-20T11:49:13.534Z,95.45
2017-12-20T11:50:13.452Z,95.45
2017-12-20T11:51:13.366Z,94.70
2017-12-20T11:52:13.282Z,95.36
2017-12-20T11:53:13.203Z,95.07
2017-12-20T11:54:13.114Z,94.79
2017-12-20T11:55:13.033Z,94.32
2017-12-20T11:56:12.951Z,94.79
2017-12-20T11:57:12.875Z,94.98
2017-12-20T11:58:12.779Z,94.98
2017-12-20T11:59:12.698Z,94.79
2017-12-20T12:00:12.612Z,94.51
2017-12-20T12:01:12.533Z,94.70
2017-12-20T12:02:12.458Z,94.60
2017-12-20T12:03:12.363Z,94.51
2017-12-20T12:04:12.281Z,94.51
2017-12-20T12:05:12.198Z,94.60
2017-12-20T12:06:12.133Z,95.36
2017-12-20T12:07:12.041Z,95.17
2017-12-20T12:08:11.944Z,95.45
2017-12-20T12:09:11.862Z,95.07
2017-12-20T12:10:11.779Z,94.98
2017-12-20T12:11:11.700Z,95.55
2017-12-20T12:12:11.610Z,95.45
2017-12-20T12:13:11.533Z,94.98
2017-12-20T12:14:11.443Z,95.36
2017-12-20T12:15:11.365Z,94.98
2017-12-20T12:16:11.276Z,95.36
2017-12-20T12:17:11.195Z,95.74
2017-12-20T12:18:11.115Z,95.07
2017-12-20T12:19:11.026Z,94.70
2017-12-20T12:20:10.951Z,94.60
2017-12-20T12:21:10.860Z,94.60
2017-12-20T12:22:10.775Z,94.60
2017-12-20T12:23:10.691Z,94.79
2017-12-20T12:24:10.607Z,95.55
2017-12-20T12:25:10.525Z,95.36
2017-12-20T12:26:10.442Z,94.70
2017-12-20T12:27:10.357Z,94.98
2017-12-20T12:28:10.274Z,94.89
2017-12-20T12:29:10.189Z,94.51
2017-12-20T12:30:10.108Z,94.60
2017-12-20T12:31:10.023Z,94.04
2017-12-20T12:32:09.940Z,93.65
2017-12-20T12:33:09.856Z,94.04
2017-12-20T12:34:09.777Z,93.27
2017-12-20T12:35:09.690Z,93.46
2017-12-20T12:36:09.606Z,93.65
2017-12-20T12:37:09.523Z,93.84
2017-12-20T12:38:09.437Z,93.94
2017-12-20T12:39:09.354Z,93.75
2017-12-20T12:40:09.272Z,94.04
2017-12-20T12:41:09.189Z,93.65
2017-12-20T12:42:09.105Z,94.32
2017-12-20T12:43:09.030Z,93.84
2017-12-20T12:44:08.938Z,93.56
2017-12-20T12:45:08.855Z,93.65
2017-12-20T12:46:08.770Z,93.46
2017-12-20T12:47:08.687Z,93.46
2017-12-20T12:48:08.603Z,94.23
2017-12-20T12:49:08.520Z,93.94
2017-12-20T12:50:08.435Z,94.04
2017-12-20T12:51:08.352Z,94.42
2017-12-20T12:52:08.268Z,94.32
2017-12-20T12:53:08.184Z,94.37
2017-12-20T12:54:08.100Z,93.80